Time;durP1;ratioP1;P1;durP2;ratioP2;P2;SDS_P1;SDS_P2;PMS_P1;PMS_P2;Temp;Humidity;BMP_temperature;BMP_pressure;BME280_temperature;BME280_humidity;BME280_pressure;Samples;Min_cycle;Max_cycle;Signal;HPM_P1;HPM_P2
2022/07/24 00:02:20;;;;;;;21.17;14.40;;;;;;;17.61;85.25;101811.44;4896133;29;20034;-72
2022/07/24 00:04:45;;;;;;;21.00;14.48;;;;;;;17.57;84.00;101804.81;4896118;29;20036;-72
2022/07/24 00:07:11;;;;;;;22.90;16.05;;;;;;;17.63;83.61;101803.97;4895978;29;20037;-67
2022/07/24 00:09:36;;;;;;;26.35;17.83;;;;;;;17.67;83.34;101807.84;4895850;29;20071;-67
2022/07/24 00:12:02;;;;;;;22.65;15.32;;;;;;;17.68;83.52;101803.28;4895747;29;20038;-67
2022/07/24 00:14:27;;;;;;;22.50;13.65;;;;;;;17.64;84.21;101783.19;4895894;29;20036;-68
2022/07/24 00:16:53;;;;;;;24.50;15.05;;;;;;;17.69;84.60;101799.56;4895887;29;20036;-67
2022/07/24 00:19:18;;;;;;;22.02;15.02;;;;;;;17.69;85.94;101810.34;4895911;29;20480;-67
2022/07/24 00:21:44;;;;;;;21.02;14.88;;;;;;;17.62;85.60;101796.91;4895643;29;20048;-68
2022/07/24 00:24:09;;;;;;;20.85;14.93;;;;;;;17.64;83.93;101800.22;4895812;29;20048;-67
2022/07/24 00:26:35;;;;;;;20.63;14.93;;;;;;;17.65;85.42;101801.84;4895643;29;20037;-67
2022/07/24 00:29:00;;;;;;;23.70;17.05;;;;;;;17.59;85.40;101801.91;4895621;29;20045;-68
2022/07/24 00:31:26;;;;;;;21.73;15.52;;;;;;;17.55;85.83;101800.69;4895433;29;20040;-67
2022/07/24 00:33:51;;;;;;;21.60;15.85;;;;;;;17.54;85.68;101799.88;4895464;29;20091;-67
2022/07/24 00:36:17;;;;;;;20.05;12.60;;;;;;;17.52;82.87;101801.97;4895225;29;20469;-68
2022/07/24 00:38:42;;;;;;;21.17;13.18;;;;;;;17.53;82.75;101800.94;4895107;29;20032;-68
2022/07/24 00:41:08;;;;;;;20.05;13.85;;;;;;;17.56;82.67;101794.28;4895444;29;20560;-67
2022/07/24 00:43:34;;;;;;;22.58;13.80;;;;;;;17.53;82.62;101799.06;4888648;29;20048;-67
2022/07/24 00:45:59;;;;;;;21.00;12.80;;;;;;;17.52;82.50;101786.59;4894659;29;20043;-67
2022/07/24 00:48:25;;;;;;;20.50;12.27;;;;;;;17.56;81.93;101794.28;4895206;29;20489;-67
2022/07/24 00:50:51;;;;;;;19.83;12.50;;;;;;;17.55;81.91;101798.81;4895238;29;20104;-67
2022/07/24 00:53:16;;;;;;;22.20;13.80;;;;;;;17.60;81.91;101801.69;4894883;29;20037;-67
2022/07/24 00:55:42;;;;;;;20.33;12.48;;;;;;;17.58;82.10;101800.25;4878329;29;20048;-67
2022/07/24 00:58:08;;;;;;;19.52;12.75;;;;;;;17.61;81.29;101808.75;4894981;29;20100;-67
2022/07/24 01:00:33;;;;;;;19.23;10.43;;;;;;;17.63;80.59;101806.66;4894868;29;20041;-68
2022/07/24 01:02:59;;;;;;;18.33;11.27;;;;;;;17.59;81.48;101799.22;4895021;29;20032;-67
2022/07/24 01:05:25;;;;;;;19.85;11.68;;;;;;;17.63;81.43;101797.72;4894462;29;20044;-67
2022/07/24 01:07:50;;;;;;;18.35;11.38;;;;;;;17.52;82.63;101788.47;4894619;29;20056;-67
2022/07/24 01:10:18;;;;;;;19.60;13.25;;;;;;;17.57;84.01;101804.81;4894370;29;20508;-67
2022/07/24 01:12:44;;;;;;;22.05;13.52;;;;;;;17.50;84.63;101807.59;4893582;29;20075;-68
2022/07/24 01:15:10;;;;;;;18.00;11.32;;;;;;;17.45;84.98;101796.63;4894174;29;20080;-67
2022/07/24 01:17:38;;;;;;;20.05;12.00;;;;;;;17.39;85.28;101802.88;4894510;29;20040;-67
2022/07/24 01:20:06;;;;;;;19.77;12.25;;;;;;;17.35;85.90;101785.50;4894284;29;20041;-67
2022/07/24 01:22:32;;;;;;;21.17;13.45;;;;;;;17.34;84.82;101789.22;4894270;29;20069;-67
2022/07/24 01:24:57;;;;;;;18.30;11.32;;;;;;;17.34;85.94;101791.09;4893563;29;20071;-67
2022/07/24 01:27:23;;;;;;;19.33;11.60;;;;;;;17.28;85.64;101787.41;4889335;29;20045;-67
2022/07/24 01:29:50;;;;;;;20.13;11.77;;;;;;;17.26;84.72;101776.84;4892551;29;20040;-67
2022/07/24 01:32:15;;;;;;;19.55;11.05;;;;;;;17.28;83.64;101782.84;4894570;29;20037;-67
2022/07/24 01:34:41;;;;;;;19.08;11.90;;;;;;;17.29;83.30;101778.25;4894484;29;20400;-67
2022/07/24 01:37:06;;;;;;;19.10;12.05;;;;;;;17.35;83.06;101773.91;4894337;29;20047;-67
2022/07/24 01:39:32;;;;;;;17.95;10.77;;;;;;;17.26;82.83;101762.53;4893922;29;20119;-67
2022/07/24 01:41:58;;;;;;;19.63;11.93;;;;;;;17.34;83.33;101773.03;4894314;29;20036;-67
2022/07/24 01:44:23;;;;;;;18.17;11.38;;;;;;;17.29;82.84;101765.63;4894189;29;20043;-68
2022/07/24 01:46:48;;;;;;;19.38;11.45;;;;;;;17.31;82.62;101762.69;4894354;29;20187;-67
2022/07/24 01:49:14;;;;;;;19.52;11.88;;;;;;;17.21;82.81;101756.97;4894069;29;20437;-67
2022/07/24 01:51:39;;;;;;;19.27;12.25;;;;;;;17.28;82.21;101765.84;4893858;29;20029;-67
2022/07/24 01:54:05;;;;;;;20.35;10.35;;;;;;;17.27;82.06;101761.50;4894290;29;20036;-68
2022/07/24 01:56:32;;;;;;;18.38;11.05;;;;;;;17.25;82.00;101758.19;4894444;29;20036;-67
2022/07/24 01:58:57;;;;;;;18.20;10.23;;;;;;;17.23;81.95;101753.00;4894068;29;20074;-67
2022/07/24 02:01:23;;;;;;;17.27;10.80;;;;;;;17.25;82.33;101752.81;4894350;29;20406;-68
2022/07/24 02:03:48;;;;;;;20.33;12.35;;;;;;;17.26;82.20;101762.53;4894133;29;20084;-67
2022/07/24 02:06:14;;;;;;;16.73;10.40;;;;;;;17.24;83.06;101756.56;4894240;29;20111;-67
2022/07/24 02:08:40;;;;;;;17.35;11.20;;;;;;;17.21;83.59;101752.44;4893952;29;20040;-67
2022/07/24 02:11:05;;;;;;;15.70;9.25;;;;;;;17.20;83.27;101752.63;4890433;29;20398;-67
2022/07/24 02:13:31;;;;;;;17.10;10.07;;;;;;;17.16;82.96;101743.31;4889649;29;20092;-68
2022/07/24 02:15:56;;;;;;;16.75;9.93;;;;;;;17.17;82.31;101750.38;4893957;29;20052;-68
2022/07/24 02:18:22;;;;;;;18.77;10.05;;;;;;;17.17;82.28;101756.59;4894012;29;20393;-67
2022/07/24 02:20:47;;;;;;;18.50;10.13;;;;;;;17.17;82.06;101756.59;4893890;29;20080;-67
2022/07/24 02:23:17;;;;;;;19.75;11.95;;;;;;;17.18;82.35;101766.31;4894916;29;20041;-67
2022/07/24 02:25:44;;;;;;;19.50;10.13;;;;;;;17.20;81.97;101766.09;4897641;29;20564;-67
2022/07/24 02:28:09;;;;;;;17.75;9.98;;;;;;;17.22;82.13;101770.25;4897829;29;20045;-68
2022/07/24 02:30:34;;;;;;;17.45;11.27;;;;;;;17.24;82.27;101768.16;4897702;29;20092;-68
2022/07/24 02:33:00;;;;;;;15.95;9.93;;;;;;;17.24;82.18;101770.03;4897375;29;20043;-68
2022/07/24 02:35:25;;;;;;;19.30;11.32;;;;;;;17.20;82.48;101764.22;4897009;29;20471;-68
2022/07/24 02:37:50;;;;;;;18.25;9.57;;;;;;;17.19;82.55;101772.56;4897135;29;20503;-68
2022/07/24 02:40:16;;;;;;;18.15;11.65;;;;;;;17.16;82.94;101768.44;4896650;29;20088;-68
2022/07/24 02:42:41;;;;;;;17.40;10.98;;;;;;;17.14;83.02;101769.69;4896804;29;20034;-66
2022/07/24 02:45:07;;;;;;;20.20;11.32;;;;;;;17.09;83.36;101765.75;4896669;29;20033;-66
2022/07/24 02:47:33;;;;;;;19.10;11.20;;;;;;;17.04;83.60;101764.75;4896925;29;20112;-66
2022/07/24 02:49:58;;;;;;;16.63;10.25;;;;;;;16.99;83.36;101764.59;4897059;29;20123;-66
2022/07/24 02:52:23;;;;;;;18.40;11.45;;;;;;;17.01;83.27;101767.91;4896816;29;20494;-66
2022/07/24 02:54:49;;;;;;;19.98;10.95;;;;;;;17.02;83.26;101766.84;4896769;29;20568;-68
2022/07/24 02:57:14;;;;;;;16.38;10.10;;;;;;;17.02;83.38;101770.38;4896397;29;20048;-67
2022/07/24 02:59:39;;;;;;;19.00;10.50;;;;;;;16.98;84.06;101762.94;4896943;29;20092;-68
2022/07/24 03:02:05;;;;;;;26.27;11.38;;;;;;;16.92;83.73;101751.16;4880220;29;20036;-67
2022/07/24 03:04:31;;;;;;;19.23;10.57;;;;;;;16.93;83.91;101755.50;4896509;29;20100;-68
2022/07/24 03:06:56;;;;;;;20.50;11.02;;;;;;;16.92;83.66;101753.03;4896804;29;20040;-68
2022/07/24 03:09:22;;;;;;;18.75;11.70;;;;;;;16.99;84.21;101765.41;4896252;29;20032;-68
2022/07/24 03:11:47;;;;;;;16.42;10.15;;;;;;;16.94;83.88;101753.63;4896546;29;20151;-68
2022/07/24 03:14:12;;;;;;;18.25;10.55;;;;;;;16.95;84.04;101757.97;4896484;29;20110;-68
2022/07/24 03:16:38;;;;;;;22.15;11.02;;;;;;;16.91;83.94;101754.91;4896564;29;20044;-68
2022/07/24 03:19:03;;;;;;;18.25;11.98;;;;;;;16.88;84.07;101762.59;4896228;29;20036;-68
2022/07/24 03:21:29;;;;;;;17.20;10.57;;;;;;;16.84;84.55;101757.63;4896354;29;20084;-67
2022/07/24 03:23:54;;;;;;;18.30;9.68;;;;;;;16.81;85.07;101758.03;4896428;29;20128;-67
2022/07/24 03:26:19;;;;;;;20.60;10.95;;;;;;;16.79;85.28;101754.78;4896316;29;20116;-68
2022/07/24 03:28:45;;;;;;;19.60;11.25;;;;;;;16.76;85.21;101757.84;4896326;29;20500;-67
2022/07/24 03:31:10;;;;;;;16.92;10.70;;;;;;;16.76;84.99;101757.84;4896156;29;20119;-68
2022/07/24 03:33:35;;;;;;;18.15;10.32;;;;;;;16.74;85.28;101759.94;4896205;29;20052;-68
2022/07/24 03:36:01;;;;;;;18.13;10.75;;;;;;;16.71;84.86;101754.97;4895183;29;20048;-68
2022/07/24 03:38:26;;;;;;;16.10;10.57;;;;;;;16.70;85.21;101758.72;4896042;29;20067;-68
2022/07/24 03:40:52;;;;;;;18.67;10.63;;;;;;;16.67;86.85;101753.75;4896070;29;20033;-67
2022/07/24 03:43:17;;;;;;;18.25;10.48;;;;;;;16.62;85.81;101761.66;4895353;29;20048;-68
2022/07/24 03:45:43;;;;;;;18.55;11.57;;;;;;;16.56;86.21;101757.94;4895892;29;20024;-66
2022/07/24 03:48:09;;;;;;;18.85;11.88;;;;;;;16.53;86.49;101758.38;4895786;29;20047;-66
2022/07/24 03:50:34;;;;;;;21.27;11.10;;;;;;;16.52;86.44;101755.91;4895791;29;20036;-65
2022/07/24 03:52:59;;;;;;;17.88;10.45;;;;;;;16.52;86.67;101759.41;4895744;29;20040;-66
2022/07/24 03:55:25;;;;;;;19.02;12.30;;;;;;;16.44;87.06;101752.41;4895777;29;20028;-66
2022/07/24 03:57:50;;;;;;;19.58;12.30;;;;;;;16.53;87.17;101755.69;4895486;29;20044;-66
2022/07/24 04:00:17;;;;;;;16.30;9.60;;;;;;;16.55;86.72;101758.97;4895548;29;20043;-66
2022/07/24 04:02:42;;;;;;;19.42;12.35;;;;;;;16.49;86.47;101741.00;4893378;29;20036;-66
2022/07/24 04:05:09;;;;;;;19.42;10.55;;;;;;;16.55;86.38;101742.81;4896062;29;20110;-66
2022/07/24 04:07:35;;;;;;;17.42;11.10;;;;;;;16.58;86.30;101745.09;4878832;29;20388;-66
2022/07/24 04:10:00;;;;;;;19.00;11.38;;;;;;;16.57;86.70;101748.81;4895801;29;20165;-68
2022/07/24 04:12:26;;;;;;;20.20;11.75;;;;;;;16.58;86.74;101746.94;4895803;29;20463;-68
2022/07/24 04:14:51;;;;;;;20.88;11.23;;;;;;;16.54;86.97;101741.19;4895751;29;20039;-68
2022/07/24 04:17:16;;;;;;;22.77;12.32;;;;;;;16.54;87.15;101751.13;4895802;29;20441;-68
2022/07/24 04:19:42;;;;;;;19.42;11.45;;;;;;;16.51;87.16;101738.91;4887937;29;20033;-68
2022/07/24 04:22:07;;;;;;;19.33;11.77;;;;;;;16.59;86.87;101738.66;4895852;29;20111;-68
2022/07/24 04:24:32;;;;;;;20.25;12.77;;;;;;;16.61;87.10;101736.59;4895653;29;20115;-68
2022/07/24 04:26:58;;;;;;;17.10;11.50;;;;;;;16.65;86.76;101735.09;4895665;29;20041;-68
2022/07/24 04:29:23;;;;;;;21.48;12.75;;;;;;;16.64;87.24;101746.94;4895440;29;20389;-68
2022/07/24 04:31:49;;;;;;;22.25;12.82;;;;;;;16.59;87.81;101749.44;4895323;29;20055;-68
2022/07/24 04:34:14;;;;;;;20.83;12.27;;;;;;;16.58;87.81;101746.94;4878245;29;20067;-68
2022/07/24 04:36:39;;;;;;;21.88;13.50;;;;;;;16.64;87.80;101759.56;4878244;29;20032;-68
2022/07/24 04:39:05;;;;;;;22.02;12.80;;;;;;;16.65;87.95;101764.72;4895172;29;20468;-68
2022/07/24 04:41:30;;;;;;;22.88;14.38;;;;;;;16.66;88.31;101768.25;4895283;29;20036;-68
2022/07/24 04:43:55;;;;;;;22.60;13.13;;;;;;;16.62;88.03;101758.97;4877754;29;20102;-69
2022/07/24 04:46:21;;;;;;;20.73;12.77;;;;;;;16.73;87.98;101768.22;4894831;29;20132;-67
2022/07/24 04:48:46;;;;;;;25.95;13.45;;;;;;;16.74;87.96;101775.25;4895077;29;20721;-68
2022/07/24 04:51:12;;;;;;;19.77;12.38;;;;;;;16.73;88.21;101762.84;4895174;29;20491;-68
2022/07/24 04:53:37;;;;;;;24.27;12.90;;;;;;;16.81;88.28;101773.41;4895018;29;20060;-68
2022/07/24 04:56:03;;;;;;;20.75;13.65;;;;;;;16.85;88.36;101780.84;4894915;29;20055;-68
2022/07/24 04:58:28;;;;;;;22.90;14.10;;;;;;;16.92;88.53;101770.00;4895078;29;20040;-68
2022/07/24 05:00:54;;;;;;;21.88;14.70;;;;;;;17.04;88.01;101768.28;4894993;29;20473;-68
2022/07/24 05:03:19;;;;;;;24.80;15.50;;;;;;;17.14;87.83;101756.22;4887257;29;20384;-68
2022/07/24 05:05:45;;;;;;;25.92;16.40;;;;;;;17.29;87.45;101765.63;4894578;29;20024;-68
2022/07/24 05:08:10;;;;;;;24.08;15.98;;;;;;;17.34;87.28;101767.66;4894432;29;20043;-68
2022/07/24 05:10:36;;;;;;;26.00;17.23;;;;;;;17.41;87.17;101773.81;4894422;29;20139;-68
2022/07/24 05:13:01;;;;;;;26.02;15.85;;;;;;;17.49;87.17;101767.34;4894377;29;20560;-68
2022/07/24 05:15:27;;;;;;;25.42;16.45;;;;;;;17.62;86.64;101761.81;4894368;29;20047;-68
2022/07/24 05:17:53;;;;;;;24.95;15.50;;;;;;;17.88;85.49;101768.06;4894111;29;20040;-68
2022/07/24 05:20:18;;;;;;;24.02;15.52;;;;;;;18.05;84.74;101758.34;4894191;29;20219;-68
2022/07/24 05:22:44;;;;;;;26.23;16.83;;;;;;;18.13;84.92;101760.75;4894165;29;20394;-68
2022/07/24 05:25:09;;;;;;;28.70;15.57;;;;;;;18.02;84.87;101745.25;4894103;29;20024;-72
2022/07/24 05:27:34;;;;;;;26.45;16.88;;;;;;;18.03;85.22;101754.22;4894098;29;20044;-72
2022/07/24 05:30:00;;;;;;;22.95;16.23;;;;;;;17.97;85.71;101755.91;4894075;29;20040;-72
2022/07/24 05:32:25;;;;;;;26.27;17.70;;;;;;;17.96;85.36;101767.75;4894141;29;20079;-72
2022/07/24 05:34:50;;;;;;;26.23;14.98;;;;;;;17.97;85.88;101766.72;4894344;29;20033;-72
2022/07/24 05:37:16;;;;;;;26.85;16.50;;;;;;;17.98;85.45;101779.19;4893977;29;20040;-72
2022/07/24 05:39:41;;;;;;;27.58;18.33;;;;;;;18.04;86.30;101770.16;4893933;29;20036;-72
2022/07/24 05:42:07;;;;;;;28.33;17.15;;;;;;;18.09;85.92;101778.44;4893988;29;20101;-72
2022/07/24 05:44:32;;;;;;;28.17;18.60;;;;;;;18.12;85.52;101769.06;4893825;29;20028;-73
2022/07/24 05:46:58;;;;;;;24.63;17.23;;;;;;;18.11;86.02;101768.22;4893350;29;20041;-73
2022/07/24 05:49:23;;;;;;;31.75;18.80;;;;;;;18.09;86.02;101770.31;4876871;29;20029;-72
2022/07/24 05:51:49;;;;;;;30.15;19.05;;;;;;;18.12;86.44;101766.34;4891846;29;20033;-72
2022/07/24 05:54:14;;;;;;;32.72;19.95;;;;;;;18.17;86.43;101782.72;4877250;29;20205;-72
2022/07/24 05:56:40;;;;;;;33.80;19.70;;;;;;;18.21;86.29;101780.38;4894269;29;20040;-72
2022/07/24 05:59:05;;;;;;;27.52;20.10;;;;;;;18.24;86.47;101775.38;4882370;29;20048;-72
2022/07/24 06:01:32;;;;;;;25.88;18.25;;;;;;;18.27;86.25;101783.00;4900307;29;20043;-72
2022/07/24 06:03:57;;;;;;;31.20;20.48;;;;;;;18.30;87.09;101779.84;4900403;29;20444;-71
2022/07/24 06:06:23;;;;;;;28.67;21.25;;;;;;;18.27;86.77;101777.63;4900463;29;20100;-70
2022/07/24 06:08:48;;;;;;;27.85;19.30;;;;;;;18.33;86.39;101784.81;4900339;29;20127;-70
2022/07/24 06:11:13;;;;;;;29.85;20.50;;;;;;;18.42;87.13;101789.91;4882991;29;20072;-71
2022/07/24 06:13:39;;;;;;;30.48;21.63;;;;;;;18.45;87.09;101790.28;4900128;29;20040;-71
2022/07/24 06:16:04;;;;;;;29.85;19.98;;;;;;;18.52;87.65;101798.31;4899958;29;20104;-71
2022/07/24 06:18:30;;;;;;;29.90;20.65;;;;;;;18.56;86.65;101791.41;4882675;29;20029;-71
2022/07/24 06:20:55;;;;;;;29.95;19.50;;;;;;;18.60;86.82;101793.44;4899005;29;20041;-71
2022/07/24 06:23:20;;;;;;;28.48;19.10;;;;;;;18.62;87.02;101782.38;4899635;29;20029;-71
2022/07/24 06:25:46;;;;;;;29.83;21.35;;;;;;;18.73;85.58;101792.44;4899799;29;20052;-71
2022/07/24 06:28:11;;;;;;;29.00;19.33;;;;;;;18.75;86.03;101789.53;4899760;29;20042;-71
2022/07/24 06:30:37;;;;;;;29.58;18.98;;;;;;;18.82;84.77;101796.50;4900007;29;20084;-71
2022/07/24 06:33:02;;;;;;;30.73;18.83;;;;;;;18.87;84.81;101797.69;4899586;29;20032;-71
2022/07/24 06:35:28;;;;;;;29.00;21.05;;;;;;;18.95;85.02;101794.69;4900109;29;20473;-67
2022/07/24 06:37:55;;;;;;;31.42;19.60;;;;;;;18.99;84.04;101793.16;4899782;29;20051;-67
2022/07/24 06:40:20;;;;;;;27.05;18.13;;;;;;;19.07;83.38;101792.81;4899970;29;20032;-67
2022/07/24 06:42:47;;;;;;;28.65;19.15;;;;;;;19.09;82.52;101788.00;4899683;29;20112;-67
2022/07/24 06:45:13;;;;;;;27.48;16.42;;;;;;;19.21;82.67;101788.88;4899668;29;20041;-67
2022/07/24 06:47:39;;;;;;;26.33;17.17;;;;;;;19.26;82.00;101788.19;4899323;29;20392;-67
2022/07/24 06:50:05;;;;;;;26.60;16.40;;;;;;;19.33;80.44;101791.59;4899398;29;20548;-66
2022/07/24 06:52:30;;;;;;;22.90;14.57;;;;;;;19.38;79.72;101796.31;4890791;29;20036;-66
2022/07/24 06:54:57;;;;;;;23.02;14.63;;;;;;;19.43;79.78;101791.84;4895972;29;20036;-66
2022/07/24 06:57:22;;;;;;;24.70;14.18;;;;;;;19.51;77.96;101792.56;4896335;29;20121;-65
2022/07/24 06:59:47;;;;;;;25.33;14.15;;;;;;;19.56;78.96;101798.94;4896188;29;20045;-66
2022/07/24 07:02:13;;;;;;;18.15;10.90;;;;;;;19.62;77.56;101789.91;4896234;29;20079;-70
2022/07/24 07:04:38;;;;;;;20.38;11.75;;;;;;;19.70;76.60;101791.44;4896203;29;20053;-70
2022/07/24 07:07:04;;;;;;;20.52;10.38;;;;;;;19.77;75.64;101792.16;4896595;29;20508;-67
2022/07/24 07:09:29;;;;;;;17.35;10.23;;;;;;;19.80;72.90;101782.75;4887647;29;20116;-68
2022/07/24 07:11:55;;;;;;;15.85;9.02;;;;;;;19.79;71.58;101762.97;4893073;29;20164;-67
2022/07/24 07:14:20;;;;;;;17.02;9.73;;;;;;;19.96;72.83;101784.72;4897007;29;20035;-67
2022/07/24 07:16:46;;;;;;;18.50;9.50;;;;;;;20.03;71.86;101785.44;4896947;29;20116;-67
2022/07/24 07:19:12;;;;;;;18.35;8.82;;;;;;;20.09;72.32;101772.84;4897116;29;20906;-67
2022/07/24 07:21:37;;;;;;;17.60;9.45;;;;;;;20.19;71.37;101777.66;4896907;29;20037;-67
2022/07/24 07:24:04;;;;;;;13.73;7.13;;;;;;;20.25;70.89;101774.81;4896678;29;20111;-67
2022/07/24 07:26:29;;;;;;;14.98;8.38;;;;;;;20.32;68.73;101783.63;4896699;29;20052;-67
2022/07/24 07:28:54;;;;;;;12.15;7.35;;;;;;;20.37;70.86;101780.22;4896677;29;20489;-66
2022/07/24 07:31:21;;;;;;;13.63;7.43;;;;;;;20.44;68.67;101789.03;4896431;29;20075;-67
2022/07/24 07:33:46;;;;;;;12.60;6.50;;;;;;;20.51;67.27;101788.88;4896578;29;20464;-67
2022/07/24 07:36:12;;;;;;;13.35;6.40;;;;;;;20.60;68.65;101790.19;4896572;29;20032;-69
2022/07/24 07:38:38;;;;;;;14.52;6.53;;;;;;;20.68;67.75;101791.72;4896502;29;20062;-69
2022/07/24 07:41:04;;;;;;;13.38;6.03;;;;;;;20.76;68.47;101794.03;4896557;29;20392;-69
2022/07/24 07:43:30;;;;;;;12.65;7.20;;;;;;;20.81;66.76;101790.59;4896441;29;20043;-69
2022/07/24 07:45:55;;;;;;;11.93;6.75;;;;;;;20.84;65.39;101792.81;4896422;29;20040;-71
2022/07/24 07:48:21;;;;;;;11.32;5.72;;;;;;;20.86;64.84;101790.69;4891311;29;20040;-69
2022/07/24 07:50:46;;;;;;;10.25;5.72;;;;;;;20.93;66.04;101789.47;4893383;29;20040;-69
2022/07/24 07:53:12;;;;;;;11.48;5.18;;;;;;;21.05;65.03;101794.03;4896077;29;20040;-69
2022/07/24 07:55:37;;;;;;;8.38;4.80;;;;;;;21.13;64.69;101794.44;4895933;29;20032;-70
2022/07/24 07:58:03;;;;;;;10.13;5.88;;;;;;;21.21;63.43;101782.38;4896147;29;20091;-69
2022/07/24 08:00:29;;;;;;;9.23;4.55;;;;;;;21.30;59.82;101782.78;4895947;29;20037;-69
2022/07/24 08:02:54;;;;;;;6.57;4.25;;;;;;;21.35;60.25;101781.00;4895018;29;20036;-69
2022/07/24 08:05:20;;;;;;;8.02;3.97;;;;;;;21.58;61.31;101782.72;4894820;29;20044;-69
2022/07/24 08:07:45;;;;;;;7.57;4.40;;;;;;;21.76;61.34;101784.38;4895603;29;20048;-70
2022/07/24 08:10:10;;;;;;;5.38;3.47;;;;;;;21.99;57.57;101772.47;4878937;29;20064;-71
2022/07/24 08:12:36;;;;;;;5.30;3.78;;;;;;;22.28;56.21;101767.72;4895841;29;20789;-70
2022/07/24 08:15:03;;;;;;;6.53;3.83;;;;;;;22.75;56.14;101766.38;4879090;29;20057;-67
2022/07/24 08:17:28;;;;;;;9.63;4.32;;;;;;;23.53;53.79;101766.81;4895798;29;20548;-67
2022/07/24 08:19:54;;;;;;;4.50;2.88;;;;;;;25.58;49.80;101770.25;4895759;29;20128;-67
2022/07/24 08:22:19;;;;;;;6.57;4.10;;;;;;;27.90;43.34;101768.63;4895248;29;20036;-69
2022/07/24 08:24:44;;;;;;;5.10;3.30;;;;;;;29.68;38.64;101790.00;4895615;29;20052;-69
2022/07/24 08:27:10;;;;;;;4.95;3.28;;;;;;;31.08;35.46;101783.22;4895445;29;20037;-69
2022/07/24 08:29:35;;;;;;;5.47;2.85;;;;;;;32.17;33.52;101782.81;4895842;29;20047;-69
2022/07/24 08:32:00;;;;;;;5.80;2.85;;;;;;;32.71;32.70;101789.75;4895399;29;20881;-69
2022/07/24 08:34:26;;;;;;;3.30;2.60;;;;;;;33.43;30.64;101778.28;4895367;29;20460;-69
2022/07/24 08:36:51;;;;;;;4.30;2.10;;;;;;;34.18;31.35;101778.66;4895337;29;20135;-70
2022/07/24 08:39:16;;;;;;;4.50;2.53;;;;;;;34.83;28.67;101768.91;4895414;29;20060;-69
2022/07/24 08:41:43;;;;;;;4.30;2.40;;;;;;;35.31;28.71;101770.22;4895285;29;20060;-69
2022/07/24 08:44:10;;;;;;;5.00;2.70;;;;;;;35.60;27.08;101773.22;4895146;29;20039;-70
2022/07/24 08:46:40;;;;;;;6.03;3.60;;;;;;;35.67;27.74;101771.47;4895398;29;20496;-69
2022/07/24 08:49:11;;;;;;;5.93;2.40;;;;;;;35.76;27.77;101772.19;4895333;29;20044;-69
2022/07/24 08:51:39;;;;;;;3.60;2.25;;;;;;;35.84;27.77;101767.66;4894819;29;20550;-70
2022/07/24 08:54:05;;;;;;;3.25;2.40;;;;;;;35.83;26.23;101751.38;4894975;29;20134;-71
2022/07/24 08:56:33;;;;;;;6.70;3.03;;;;;;;35.94;26.24;101767.19;4894649;29;20084;-70
2022/07/24 08:58:59;;;;;;;6.85;2.63;;;;;;;35.95;25.82;101760.50;4894582;29;20048;-70
2022/07/24 09:01:24;;;;;;;3.33;2.20;;;;;;;36.01;25.96;101766.63;4894586;29;20024;-70
2022/07/24 09:03:50;;;;;;;2.45;2.13;;;;;;;36.14;26.01;101756.34;4894380;29;20037;-70
2022/07/24 09:06:15;;;;;;;4.18;2.53;;;;;;;34.85;27.47;101743.63;4894458;29;20067;-70
2022/07/24 09:08:42;;;;;;;2.70;2.38;;;;;;;32.56;29.77;101757.06;4894488;29;20029;-70
2022/07/24 09:11:09;;;;;;;3.78;2.33;;;;;;;30.79;34.18;101751.34;4890020;29;20055;-73
2022/07/24 09:16:22;;;;;;;3.60;2.30;;;;;;;28.61;37.13;101756.78;4879412;29;20108;-73
2022/07/24 09:18:49;;;;;;;4.43;2.28;;;;;;;27.99;40.06;101753.19;4892064;29;20474;-73
2022/07/24 09:21:17;;;;;;;2.63;2.10;;;;;;;27.36;40.90;101747.81;4885510;29;20120;-73
2022/07/24 09:23:44;;;;;;;2.42;1.90;;;;;;;26.84;42.18;101739.16;4887727;29;20047;-73
2022/07/24 09:26:10;;;;;;;4.68;2.38;;;;;;;26.48;43.21;101746.72;4887482;29;20559;-73
2022/07/24 09:28:50;;;;;;;5.50;2.38;;;;;;;26.14;42.71;101740.03;4888867;29;20111;-73
2022/07/24 09:31:16;;;;;;;4.10;2.40;;;;;;;25.82;44.16;101739.59;4888740;29;20132;-70
2022/07/24 09:33:41;;;;;;;3.45;2.60;;;;;;;25.71;45.91;101736.88;4891527;29;20119;-70
2022/07/24 09:36:15;;;;;;;2.47;1.92;;;;;;;25.68;45.10;101739.38;4890273;29;20048;-68
2022/07/24 09:38:47;;;;;;;3.22;2.45;;;;;;;25.55;45.10;101735.28;4890181;29;20088;-68
2022/07/24 09:41:18;;;;;;;3.78;2.75;;;;;;;25.45;46.14;101732.56;4890501;29;20028;-69
2022/07/24 09:43:43;;;;;;;4.20;3.22;;;;;;;25.43;45.67;101726.56;4890564;29;20032;-72
2022/07/24 09:46:10;;;;;;;5.53;2.97;;;;;;;25.42;47.36;101720.28;4890505;29;20038;-70
2022/07/24 09:48:38;;;;;;;4.30;3.13;;;;;;;25.51;46.83;101728.72;4890464;29;20115;-71
2022/07/24 09:51:14;;;;;;;4.65;2.53;;;;;;;25.61;46.05;101723.25;4889968;29;20095;-71
2022/07/24 09:53:42;;;;;;;3.88;2.67;;;;;;;25.67;47.14;101726.78;4890136;29;20391;-71
2022/07/24 09:56:18;;;;;;;4.30;3.13;;;;;;;25.77;48.65;101724.03;4882428;29;20036;-70
2022/07/24 09:58:46;;;;;;;3.03;2.40;;;;;;;25.87;47.28;101715.00;4890057;29;20024;-70
2022/07/24 10:01:14;;;;;;;4.63;2.50;;;;;;;25.99;48.61;101712.75;4883157;29;20381;-71
2022/07/24 10:03:43;;;;;;;2.67;2.40;;;;;;;26.12;45.93;101714.91;4890156;29;20548;-69
2022/07/24 10:06:17;;;;;;;4.40;2.67;;;;;;;26.19;46.75;101717.34;4890022;29;20024;-69
2022/07/24 10:08:44;;;;;;;3.40;2.67;;;;;;;26.02;46.33;101707.56;4892974;29;20025;-69
2022/07/24 10:11:11;;;;;;;2.63;2.40;;;;;;;25.85;46.33;101707.09;4894060;29;20056;-69
2022/07/24 10:13:36;;;;;;;5.80;3.13;;;;;;;25.78;47.41;101701.91;4894196;29;20068;-69
2022/07/24 10:16:13;;;;;;;5.38;2.60;;;;;;;25.79;46.72;101708.97;4894173;29;20036;-69
2022/07/24 10:18:49;;;;;;;3.17;2.58;;;;;;;25.77;47.76;101699.44;4893655;29;20044;-69
2022/07/24 10:21:23;;;;;;;4.70;2.90;;;;;;;25.82;47.09;101704.06;4893557;29;20045;-68
2022/07/24 10:24:06;;;;;;;4.88;2.47;;;;;;;25.84;49.00;101700.00;4893599;29;20052;-68
2022/07/24 10:26:36;;;;;;;3.75;2.90;;;;;;;25.91;49.80;101695.06;4893577;29;20553;-69
2022/07/24 10:29:10;;;;;;;3.20;2.60;;;;;;;26.07;46.66;101693.06;4893513;29;20466;-70
2022/07/24 10:31:37;;;;;;;5.28;2.60;;;;;;;26.24;47.65;101698.97;4893539;29;20549;-70
2022/07/24 10:34:09;;;;;;;4.43;2.60;;;;;;;26.39;46.85;101686.34;4893477;29;20037;-70
2022/07/24 10:36:39;;;;;;;;;;;;;;;26.55;48.12;101687.09;4894045;29;20068;-70
2022/07/24 10:39:20;;;;;;;3.08;2.40;;;;;;;26.65;45.19;101676.06;4893652;29;19919;-69
2022/07/24 10:41:59;;;;;;;2.47;2.17;;;;;;;26.71;45.81;101683.13;4893459;29;20112;-70
2022/07/24 10:44:25;;;;;;;2.80;2.40;;;;;;;26.82;46.58;101683.84;4889834;29;20039;-70
2022/07/24 10:47:19;;;;;;;3.63;2.42;;;;;;;26.87;47.07;101681.09;4897428;29;20036;-70
2022/07/24 10:49:50;;;;;;;3.17;2.70;;;;;;;27.03;47.73;101679.03;4897466;29;20037;-69
2022/07/24 10:52:27;;;;;;;4.78;2.88;;;;;;;27.09;47.65;101666.91;4897378;29;20051;-70
2022/07/24 10:55:30;;;;;;;3.05;2.70;;;;;;;27.21;45.24;101672.06;4897231;29;20032;-69
2022/07/24 10:58:02;;;;;;;2.97;2.22;;;;;;;27.27;45.47;101668.16;4897225;29;20115;-68
2022/07/24 11:00:34;;;;;;;4.60;2.50;;;;;;;27.41;46.25;101671.84;4897182;29;20035;-69
2022/07/24 11:02:59;;;;;;;3.47;2.75;;;;;;;27.37;43.98;101676.25;4897261;29;20043;-68
2022/07/24 11:05:33;;;;;;;2.50;2.30;;;;;;;27.26;44.26;101661.03;4897207;29;20033;-68
2022/07/24 11:08:29;;;;;;;2.95;2.63;;;;;;;27.24;44.76;101669.53;4897090;29;20383;-68
2022/07/24 11:11:05;;;;;;;5.40;2.55;;;;;;;27.28;44.39;101665.13;4897042;29;20044;-67
2022/07/24 11:13:33;;;;;;;5.75;3.00;;;;;;;27.39;45.50;101665.03;4897021;29;20469;-66
2022/07/24 11:16:10;;;;;;;5.05;2.88;;;;;;;27.42;45.28;101668.00;4897052;29;20029;-68